Time;durP1;ratioP1;P1;durP2;ratioP2;P2;SDS_P1;SDS_P2;PMS_P1;PMS_P2;Temp;Humidity;BMP_temperature;BMP_pressure;BME280_temperature;BME280_humidity;BME280_pressure;Samples;Min_cycle;Max_cycle;Signal;HPM_P1;HPM_P2
2022/06/14 00:00:57;;;;;;;6.95;2.15;;;;;;;11.71;98.11;102465.59;5034075;28;20037;-69
2022/06/14 00:03:39;;;;;;;7.13;2.65;;;;;;;11.64;98.83;102467.53;5032931;28;20033;-68
2022/06/14 00:06:08;;;;;;;8.95;2.60;;;;;;;11.61;99.17;102464.06;5034402;28;20056;-68
2022/06/14 00:08:34;;;;;;;7.35;2.00;;;;;;;11.56;99.94;102474.81;5034014;28;20049;-68
2022/06/14 00:11:05;;;;;;;9.20;2.67;;;;;;;11.53;100.00;102468.69;5033922;28;20071;-69
2022/06/14 00:13:31;;;;;;;8.93;2.40;;;;;;;11.50;100.00;102468.78;5033547;28;20038;-68
2022/06/14 00:15:56;;;;;;;7.28;2.15;;;;;;;11.51;100.00;102470.50;5032667;28;20041;-67
2022/06/14 00:18:25;;;;;;;5.70;2.40;;;;;;;11.47;100.00;102465.28;5032821;28;20033;-68
2022/06/14 00:20:51;;;;;;;10.27;2.70;;;;;;;11.45;100.00;102467.09;5013213;28;20539;-67
2022/06/14 00:23:17;;;;;;;8.13;2.35;;;;;;;11.44;100.00;102456.50;5029935;28;20109;-68
2022/06/14 00:25:45;;;;;;;7.47;2.50;;;;;;;11.41;100.00;102454.81;5033469;28;20037;-68
2022/06/14 00:28:14;;;;;;;7.75;2.65;;;;;;;11.37;100.00;102461.09;5033663;28;20723;-68
2022/06/14 00:30:41;;;;;;;11.57;2.42;;;;;;;11.34;100.00;102461.13;5034110;28;20053;-68
2022/06/14 00:33:07;;;;;;;6.43;2.42;;;;;;;11.31;100.00;102462.06;5033742;28;20033;-68
2022/06/14 00:35:33;;;;;;;11.20;2.60;;;;;;;11.30;100.00;102464.78;5032828;28;20401;-68
2022/06/14 00:38:00;;;;;;;7.85;2.53;;;;;;;11.28;100.00;102450.69;5032977;28;20082;-68
2022/06/14 00:40:29;;;;;;;7.07;2.60;;;;;;;11.22;100.00;102462.28;5032578;28;20025;-68
2022/06/14 00:42:55;;;;;;;8.80;2.47;;;;;;;11.19;100.00;102470.31;5033160;28;20056;-68
2022/06/14 00:45:26;;;;;;;7.88;2.72;;;;;;;11.19;100.00;102464.13;5032945;28;20025;-69
2022/06/14 00:47:58;;;;;;;8.20;2.60;;;;;;;11.17;100.00;102455.34;5034264;28;20025;-69
2022/06/14 00:51:05;;;;;;;8.23;2.47;;;;;;;11.20;100.00;102449.97;5033699;28;20029;-69
2022/06/14 00:53:38;;;;;;;10.88;3.15;;;;;;;11.18;100.00;102457.97;5032582;28;20493;-67
2022/06/14 00:56:25;;;;;;;6.35;2.20;;;;;;;11.15;100.00;102452.69;5033752;28;20063;-68
2022/06/14 00:59:18;;;;;;;7.65;2.63;;;;;;;11.09;100.00;102451.06;5033388;28;20041;-68
2022/06/14 01:01:45;;;;;;;;;;;;;;;11.07;100.00;102452.00;5032795;28;20033;-68
2022/06/14 01:04:17;;;;;;;7.35;2.88;;;;;;;11.05;100.00;102445.84;5032707;28;20411;-68
2022/06/14 01:06:51;;;;;;;7.30;2.50;;;;;;;11.05;100.00;102444.09;5032300;28;20551;-68
2022/06/14 01:09:23;;;;;;;7.18;2.33;;;;;;;11.02;100.00;102436.19;5033493;28;20030;-68
2022/06/14 01:12:06;;;;;;;10.88;3.33;;;;;;;11.04;100.00;102444.13;5033509;28;20029;-68
2022/06/14 01:15:01;;;;;;;5.93;2.90;;;;;;;11.16;100.00;102441.19;5032668;28;20416;-69
2022/06/14 01:17:28;;;;;;;10.93;3.03;;;;;;;11.26;100.00;102436.56;5032237;28;20022;-69
2022/06/14 01:19:54;;;;;;;6.38;2.90;;;;;;;11.38;100.00;102443.38;5033284;28;20420;-69
2022/06/14 01:22:21;;;;;;;9.50;2.75;;;;;;;11.43;100.00;102442.38;5032970;28;20111;-68
2022/06/14 01:24:46;;;;;;;7.78;2.90;;;;;;;11.47;100.00;102435.22;5033171;28;20029;-69
2022/06/14 01:27:16;;;;;;;12.70;3.08;;;;;;;11.41;100.00;102430.06;5033173;28;20494;-68
2022/06/14 01:29:46;;;;;;;6.18;2.80;;;;;;;11.30;100.00;102433.84;5032774;28;20037;-68
2022/06/14 01:32:15;;;;;;;9.68;3.30;;;;;;;11.31;100.00;102432.03;5032611;28;20492;-69
2022/06/14 01:34:45;;;;;;;7.43;3.22;;;;;;;11.26;100.00;102415.38;5032038;28;20469;-69
2022/06/14 01:37:11;;;;;;;6.95;2.90;;;;;;;11.16;100.00;102425.28;5033154;28;20030;-68
2022/06/14 01:39:37;;;;;;;10.10;2.92;;;;;;;11.04;100.00;102422.94;5032877;28;20116;-68
2022/06/14 01:42:14;;;;;;;10.60;3.30;;;;;;;10.96;100.00;102417.78;5029893;28;20033;-68
2022/06/14 01:44:52;;;;;;;10.73;3.47;;;;;;;10.88;100.00;102412.66;5030315;28;20048;-67
2022/06/14 01:47:42;;;;;;;7.20;2.83;;;;;;;10.79;100.00;102411.06;5032315;28;20030;-68
2022/06/14 01:53:24;;;;;;;9.40;3.10;;;;;;;10.70;100.00;102403.28;5021856;28;20388;-68
2022/06/14 01:56:11;;;;;;;8.45;2.72;;;;;;;10.70;100.00;102402.41;5031757;28;20033;-68
2022/06/14 01:58:53;;;;;;;8.38;3.00;;;;;;;10.68;100.00;102410.41;5032201;28;20044;-69
2022/06/14 02:01:26;;;;;;;7.65;2.83;;;;;;;10.65;100.00;102410.44;5030849;28;20025;-68
2022/06/14 02:06:59;;;;;;;8.85;3.25;;;;;;;10.62;100.00;102407.88;5032348;28;20052;-68
2022/06/14 02:09:35;;;;;;;7.57;3.10;;;;;;;10.63;100.00;102414.91;5031255;28;20022;-68
2022/06/14 02:12:04;;;;;;;9.88;2.92;;;;;;;10.64;100.00;102400.78;5031828;28;20422;-69
2022/06/14 02:14:39;;;;;;;8.70;3.05;;;;;;;10.61;100.00;102412.31;5030787;28;20025;-68
2022/06/14 02:17:12;;;;;;;8.65;3.05;;;;;;;10.59;100.00;102403.50;5032430;28;20433;-67
2022/06/14 02:19:45;;;;;;;8.88;3.22;;;;;;;10.60;100.00;102407.00;5032114;28;20026;-67
2022/06/14 02:22:17;;;;;;;7.75;3.13;;;;;;;10.61;100.00;102411.41;5030684;28;20113;-68
2022/06/14 02:24:57;;;;;;;10.70;3.35;;;;;;;10.59;100.00;102407.94;5029902;28;20028;-67
2022/06/14 02:27:28;;;;;;;8.23;3.10;;;;;;;10.56;100.00;102398.28;5030174;28;20124;-69
2022/06/14 02:30:16;;;;;;;7.88;3.20;;;;;;;10.53;100.00;102400.97;5031658;28;20417;-69
2022/06/14 02:32:53;;;;;;;10.70;3.25;;;;;;;10.51;100.00;102404.56;5031979;28;20025;-69
2022/06/14 02:35:24;;;;;;;7.07;3.03;;;;;;;10.49;100.00;102409.88;5030602;28;20060;-69
2022/06/14 02:38:01;;;;;;;10.73;3.45;;;;;;;10.45;100.00;102403.78;5032004;28;20432;-69
2022/06/14 02:40:33;;;;;;;7.32;3.03;;;;;;;10.46;100.00;102404.63;5030384;28;20104;-69
2022/06/14 02:43:06;;;;;;;7.93;3.10;;;;;;;10.45;100.00;102403.78;5029085;28;20057;-67
2022/06/14 02:45:57;;;;;;;7.85;3.35;;;;;;;10.46;100.00;102412.56;5028499;28;20374;-68
2022/06/14 02:48:26;;;;;;;9.43;3.42;;;;;;;10.46;100.00;102401.97;5025335;28;20535;-68
2022/06/14 02:50:59;;;;;;;9.00;3.58;;;;;;;10.43;100.00;102402.06;5045622;28;20037;-68
2022/06/14 02:53:31;;;;;;;8.55;3.33;;;;;;;10.41;100.00;102399.44;5031781;28;20021;-68
2022/06/14 02:56:25;;;;;;;7.50;3.80;;;;;;;10.42;100.00;102395.00;5031398;28;20477;-68
2022/06/14 02:59:22;;;;;;;10.30;3.53;;;;;;;10.43;100.00;102391.47;5027481;28;20017;-69
2022/06/14 03:02:00;;;;;;;5.88;3.38;;;;;;;10.42;100.00;102400.31;5030234;28;20069;-69
2022/06/14 03:04:34;;;;;;;10.98;3.63;;;;;;;10.39;100.00;102393.28;5046241;28;20029;-68
2022/06/14 03:07:04;;;;;;;7.63;3.45;;;;;;;10.36;100.00;102396.00;5031361;28;20033;-68
2022/06/14 03:09:32;;;;;;;9.27;4.10;;;;;;;10.37;100.00;102394.22;5045294;28;20087;-68
2022/06/14 03:12:36;;;;;;;10.98;3.55;;;;;;;10.36;100.00;102388.06;5031666;28;20064;-70
2022/06/14 03:15:35;;;;;;;8.05;3.60;;;;;;;10.31;100.00;102390.75;5031512;28;20366;-68
2022/06/14 03:18:27;;;;;;;7.82;3.60;;;;;;;10.28;100.00;102387.28;5032361;28;20477;-68
2022/06/14 03:21:17;;;;;;;5.25;2.90;;;;;;;10.24;100.00;102389.13;5032176;28;20048;-68
2022/06/14 03:24:08;;;;;;;10.20;3.53;;;;;;;10.21;100.00;102391.81;5034466;28;20112;-69
2022/06/14 03:26:45;;;;;;;6.68;3.13;;;;;;;10.20;100.00;102383.91;5035029;28;20041;-68
2022/06/14 03:29:17;;;;;;;11.52;3.22;;;;;;;10.20;100.00;102387.44;5014249;28;20030;-69
2022/06/14 03:31:50;;;;;;;9.43;3.60;;;;;;;10.22;100.00;102392.69;5033882;28;20029;-68
2022/06/14 03:34:24;;;;;;;6.25;3.30;;;;;;;10.28;100.00;102389.94;5033946;28;20488;-68
2022/06/14 03:36:52;;;;;;;9.02;3.25;;;;;;;10.31;100.00;102387.25;5034266;28;20051;-69
2022/06/14 03:39:23;;;;;;;5.72;3.10;;;;;;;10.33;100.00;102388.06;5033547;28;20036;-68
2022/06/14 03:41:51;;;;;;;7.43;3.38;;;;;;;10.37;100.00;102389.81;5034750;28;20033;-68
2022/06/14 03:44:19;;;;;;;7.20;3.30;;;;;;;10.42;100.00;102390.59;5035089;28;20037;-68
2022/06/14 03:47:10;;;;;;;9.00;3.35;;;;;;;10.44;100.00;102383.47;5035158;28;20087;-68
2022/06/14 03:49:38;;;;;;;9.82;3.28;;;;;;;10.47;100.00;102391.38;5034346;28;20033;-69
2022/06/14 03:52:37;;;;;;;8.85;3.28;;;;;;;10.54;100.00;102396.53;5033024;28;20022;-68
2022/06/14 03:55:38;;;;;;;11.20;3.55;;;;;;;10.56;100.00;102395.63;5033642;28;20045;-68
2022/06/14 03:58:19;;;;;;;7.85;3.47;;;;;;;10.59;100.00;102389.41;5034970;28;20075;-67
2022/06/14 04:01:24;;;;;;;6.53;3.10;;;;;;;10.57;100.00;102399.13;5031072;28;20087;-68
2022/06/14 04:04:27;;;;;;;12.00;3.60;;;;;;;10.56;100.00;102381.50;4993429;28;20030;-69
2022/06/14 04:07:30;;;;;;;8.55;3.60;;;;;;;10.56;100.00;102400.94;5013932;28;20115;-68
2022/06/14 04:10:13;;;;;;;5.30;2.90;;;;;;;10.60;100.00;102391.13;5033462;28;20037;-68
2022/06/14 04:12:56;;;;;;;9.27;3.80;;;;;;;10.64;100.00;102391.03;5034419;28;20096;-68
2022/06/14 04:15:39;;;;;;;7.55;3.10;;;;;;;10.71;100.00;102385.63;5033540;28;20053;-68
2022/06/14 04:18:38;;;;;;;8.15;3.33;;;;;;;10.74;100.00;102389.09;5034417;28;20026;-68
2022/06/14 04:21:27;;;;;;;11.75;3.80;;;;;;;10.74;100.00;102396.13;5033775;28;20087;-68
2022/06/14 04:24:08;;;;;;;7.82;3.53;;;;;;;10.74;100.00;102397.03;5027624;28;20057;-69
2022/06/14 04:26:39;;;;;;;9.73;3.47;;;;;;;10.78;100.00;102392.53;5013288;28;20022;-69
2022/06/14 04:29:49;;;;;;;8.80;3.50;;;;;;;10.85;100.00;102393.28;5013391;28;20038;-69
2022/06/14 04:32:26;;;;;;;7.60;3.50;;;;;;;10.92;100.00;102395.78;5032311;28;20746;-69
2022/06/14 04:35:01;;;;;;;9.68;3.63;;;;;;;10.99;100.00;102393.84;5032975;28;20029;-69
2022/06/14 04:37:31;;;;;;;6.35;3.58;;;;;;;11.06;100.00;102397.25;5034239;28;20029;-69
2022/06/14 04:40:06;;;;;;;8.95;3.50;;;;;;;11.12;100.00;102399.75;5033984;28;20030;-69
2022/06/14 04:42:39;;;;;;;9.05;3.63;;;;;;;11.15;100.00;102403.22;5032186;28;20065;-69
2022/06/14 04:45:32;;;;;;;12.82;4.05;;;;;;;11.16;100.00;102396.13;5033747;28;20032;-70
2022/06/14 04:48:05;;;;;;;6.38;3.65;;;;;;;11.22;100.00;102403.94;5033758;28;20104;-67
2022/06/14 04:50:47;;;;;;;13.63;3.90;;;;;;;11.32;100.00;102404.63;5033595;28;20021;-67
2022/06/14 04:53:45;;;;;;;5.97;3.13;;;;;;;11.44;100.00;102401.66;5033476;28;20083;-68
2022/06/14 04:56:31;;;;;;;9.80;3.42;;;;;;;11.56;100.00;102399.63;5029815;28;20041;-69
2022/06/14 04:59:11;;;;;;;11.50;3.58;;;;;;;11.70;100.00;102407.25;5033367;28;20120;-69
2022/06/14 05:01:56;;;;;;;8.43;3.60;;;;;;;11.81;100.00;102399.91;5031868;28;20030;-69
2022/06/14 05:04:32;;;;;;;7.88;3.58;;;;;;;11.92;100.00;102415.59;5033157;28;20496;-68
2022/06/14 05:07:05;;;;;;;7.97;3.20;;;;;;;12.08;100.00;102401.00;5033566;28;20405;-68
2022/06/14 05:09:41;;;;;;;7.95;3.03;;;;;;;12.21;100.00;102404.25;5047093;28;20396;-68
2022/06/14 05:12:18;;;;;;;8.48;3.20;;;;;;;12.31;100.00;102409.31;5032776;28;20025;-68
2022/06/14 05:15:07;;;;;;;6.75;2.75;;;;;;;12.41;100.00;102409.00;5032305;28;20037;-68
2022/06/14 05:17:40;;;;;;;6.45;3.08;;;;;;;12.46;100.00;102411.53;5031333;28;20029;-69
2022/06/14 05:20:17;;;;;;;7.10;3.10;;;;;;;12.60;100.00;102412.00;5031230;28;20392;-69
2022/06/14 05:23:07;;;;;;;10.63;3.33;;;;;;;12.69;99.65;102407.38;5032258;28;20120;-68
2022/06/14 05:26:02;;;;;;;7.15;3.10;;;;;;;12.82;99.59;102395.44;5012090;28;20496;-68
2022/06/14 05:29:05;;;;;;;9.30;3.78;;;;;;;13.02;97.40;102401.94;5013682;28;20025;-68
2022/06/14 05:31:35;;;;;;;8.48;3.13;;;;;;;13.14;95.91;102398.94;5037485;28;20039;-67
2022/06/14 05:34:15;;;;;;;10.30;3.70;;;;;;;13.32;94.27;102400.16;5048303;28;20022;-67
2022/06/14 05:36:51;;;;;;;9.60;3.80;;;;;;;13.46;93.12;102405.06;5031871;28;20036;-68
2022/06/14 05:39:28;;;;;;;9.45;3.85;;;;;;;13.58;93.50;102410.00;5032834;28;20068;-67
2022/06/14 05:42:05;;;;;;;8.45;3.80;;;;;;;13.65;92.86;102397.34;5022417;28;20021;-68
2022/06/14 05:44:37;;;;;;;7.78;3.40;;;;;;;13.68;91.32;102404.38;5032971;28;20088;-68
2022/06/14 05:47:11;;;;;;;8.00;3.58;;;;;;;13.80;91.33;102405.75;5032222;28;20464;-69
2022/06/14 05:49:43;;;;;;;10.27;4.53;;;;;;;13.87;90.51;102401.97;5032699;28;20091;-69
2022/06/14 05:52:12;;;;;;;8.13;3.60;;;;;;;13.90;89.61;102400.09;5030559;28;20109;-67
2022/06/14 05:55:08;;;;;;;7.75;3.15;;;;;;;14.00;89.31;102405.97;5032187;28;20025;-68
2022/06/14 05:58:00;;;;;;;6.60;3.03;;;;;;;14.07;87.23;102406.63;5032603;28;20032;-68
2022/06/14 06:00:32;;;;;;;9.27;2.75;;;;;;;14.15;87.08;102409.88;5032365;28;20025;-69
2022/06/14 06:03:25;;;;;;;5.28;2.67;;;;;;;14.26;85.53;102409.53;5029706;28;20396;-69
2022/06/14 06:05:59;;;;;;;7.97;2.50;;;;;;;14.40;84.07;102401.91;5032429;28;20072;-68
2022/06/14 06:08:41;;;;;;;6.63;2.45;;;;;;;14.52;83.85;102405.91;5029732;28;20017;-67
2022/06/14 06:11:19;;;;;;;7.43;2.92;;;;;;;14.63;84.21;102407.31;5031931;28;20063;-68
2022/06/14 06:13:52;;;;;;;8.02;2.40;;;;;;;14.72;83.39;102410.53;5030270;28;20492;-68
2022/06/14 06:16:34;;;;;;;7.82;2.17;;;;;;;14.89;82.24;102415.22;5032228;28;20563;-68
2022/06/14 06:19:07;;;;;;;8.07;1.90;;;;;;;15.19;81.48;102408.78;5031652;28;20025;-68
2022/06/14 06:21:39;;;;;;;7.50;2.20;;;;;;;15.51;79.96;102409.28;5030859;28;20033;-68
2022/06/14 06:24:13;;;;;;;5.05;2.00;;;;;;;15.87;79.55;102414.94;5031682;28;20473;-68
2022/06/14 06:26:42;;;;;;;4.95;1.80;;;;;;;16.13;76.70;102412.97;5032190;28;20496;-68
2022/06/14 06:29:17;;;;;;;7.20;2.10;;;;;;;16.49;76.74;102417.63;5029943;28;20013;-68
2022/06/14 06:31:46;;;;;;;6.60;2.40;;;;;;;16.67;75.52;102415.91;5029593;28;20178;-69
2022/06/14 06:34:14;;;;;;;7.47;2.10;;;;;;;16.87;74.05;102419.50;5034899;28;20048;-68
2022/06/14 06:37:08;;;;;;;6.55;2.10;;;;;;;16.98;72.35;102419.91;5045061;28;20126;-68
2022/06/14 06:39:51;;;;;;;6.10;2.38;;;;;;;17.09;71.77;102419.41;5044724;28;20036;-68
2022/06/14 06:42:29;;;;;;;8.82;2.90;;;;;;;17.18;72.21;102418.94;5037934;28;20140;-68
2022/06/14 06:45:16;;;;;;;6.35;2.00;;;;;;;17.13;71.66;102418.31;5035884;28;20029;-66
2022/06/14 06:47:52;;;;;;;5.93;1.98;;;;;;;17.18;70.75;102416.28;5031267;28;20105;-67
2022/06/14 06:50:25;;;;;;;6.05;2.15;;;;;;;17.42;68.53;102424.09;5032779;28;20093;-67
2022/06/14 06:53:01;;;;;;;6.18;1.80;;;;;;;17.65;67.28;102420.28;5031045;28;20037;-68
2022/06/14 06:55:44;;;;;;;7.65;1.98;;;;;;;17.67;67.73;102415.72;5029268;28;20037;-69
2022/06/14 06:58:34;;;;;;;7.05;1.80;;;;;;;17.94;66.60;102422.47;5034169;28;20032;-67
2022/06/14 07:01:04;;;;;;;6.40;2.08;;;;;;;18.01;66.00;102416.69;5031687;28;20047;-67
2022/06/14 07:03:43;;;;;;;3.40;1.65;;;;;;;18.26;62.80;102419.94;5029544;28;20017;-68
2022/06/14 07:06:19;;;;;;;7.70;1.60;;;;;;;18.19;61.85;102416.72;5030070;28;20325;-68
2022/06/14 07:09:17;;;;;;;4.00;1.70;;;;;;;18.39;60.11;102423.72;5029234;28;20029;-69
2022/06/14 07:11:48;;;;;;;3.15;1.70;;;;;;;18.50;60.36;102423.13;5017880;28;20068;-68
2022/06/14 07:14:23;;;;;;;;;;;;;;;18.48;59.69;102422.38;5031463;28;20548;-67
2022/06/14 07:16:57;;;;;;;6.72;1.90;;;;;;;18.35;58.79;102422.16;5031631;28;19913;-67
2022/06/14 07:19:39;;;;;;;5.28;1.80;;;;;;;18.40;59.63;102419.22;5030198;28;20400;-67
2022/06/14 07:22:26;;;;;;;6.03;2.13;;;;;;;18.44;58.17;102418.09;5045729;28;20362;-67
2022/06/14 07:25:20;;;;;;;6.25;1.75;;;;;;;18.44;59.61;102423.44;5029790;28;20035;-68
2022/06/14 07:28:02;;;;;;;6.38;1.80;;;;;;;18.55;58.22;102421.06;5029554;28;20072;-68
2022/06/14 07:30:36;;;;;;;6.40;1.77;;;;;;;18.53;58.94;102423.00;5017938;28;20024;-67
2022/06/14 07:33:03;;;;;;;4.75;1.70;;;;;;;18.36;55.71;102420.31;5030233;28;20034;-68
2022/06/14 07:35:51;;;;;;;5.60;1.60;;;;;;;18.30;54.13;102414.34;5031143;28;20475;-68
2022/06/14 07:38:19;;;;;;;3.22;1.60;;;;;;;18.20;55.06;102426.50;5031143;28;20503;-68
2022/06/14 07:41:03;;;;;;;5.65;1.80;;;;;;;18.36;56.92;102413.13;5030561;28;20028;-69
2022/06/14 07:43:47;;;;;;;5.25;1.90;;;;;;;18.45;56.04;102422.50;5031786;28;20049;-71
2022/06/14 07:46:19;;;;;;;5.20;1.75;;;;;;;18.36;55.51;102420.31;5042151;28;20082;-69
2022/06/14 07:48:53;;;;;;;3.80;1.75;;;;;;;18.31;54.47;102421.44;5040245;28;20025;-69
2022/06/14 07:51:25;;;;;;;3.80;1.80;;;;;;;18.39;55.47;102410.31;5045371;28;20108;-69
2022/06/14 07:54:13;;;;;;;3.53;1.75;;;;;;;18.56;56.81;102416.59;5039325;28;20029;-68
2022/06/14 07:56:48;;;;;;;8.40;2.05;;;;;;;18.69;57.28;102419.47;5033058;28;20029;-68
2022/06/14 07:59:51;;;;;;;4.35;2.00;;;;;;;18.83;56.03;102415.06;5028289;28;20056;-69
2022/06/14 08:02:19;;;;;;;3.38;1.67;;;;;;;18.66;56.63;102428.56;5029107;28;20052;-69
2022/06/14 08:04:51;;;;;;;8.18;2.30;;;;;;;18.92;54.63;102423.63;5033616;28;20630;-69
2022/06/14 08:07:18;;;;;;;9.77;1.95;;;;;;;18.90;54.72;102420.13;5034545;28;20504;-68
2022/06/14 08:09:47;;;;;;;5.82;2.65;;;;;;;19.10;54.50;102421.72;5032874;28;20056;-69
2022/06/14 08:12:35;;;;;;;5.10;2.40;;;;;;;19.06;54.58;102417.47;5032261;28;20029;-69
2022/06/14 08:15:16;;;;;;;3.65;2.15;;;;;;;19.05;54.39;102413.06;5033147;28;20030;-69
2022/06/14 08:18:22;;;;;;;6.10;1.90;;;;;;;19.29;53.69;102410.81;5025090;28;20525;-69
2022/06/14 08:20:56;;;;;;;6.60;1.95;;;;;;;19.44;52.13;102407.25;5033084;28;20029;-69
2022/06/14 08:23:40;;;;;;;4.28;2.00;;;;;;;19.42;53.07;102408.28;5033400;28;20025;-69
2022/06/14 08:26:18;;;;;;;3.95;1.83;;;;;;;19.14;54.63;102405.38;5030766;28;20057;-69
2022/06/14 08:29:10;;;;;;;6.22;2.47;;;;;;;19.18;54.18;102407.88;5033806;28;20087;-69
2022/06/14 08:31:58;;;;;;;6.82;2.13;;;;;;;19.26;54.12;102403.78;5026557;28;20064;-69
2022/06/14 08:34:54;;;;;;;5.82;2.00;;;;;;;19.51;53.79;102406.91;5032792;28;20540;-68
2022/06/14 08:37:36;;;;;;;4.55;2.33;;;;;;;19.83;51.87;102396.97;5030553;28;20067;-68
2022/06/14 08:40:23;;;;;;;6.78;2.30;;;;;;;20.69;47.81;102398.03;5064322;28;20057;-68
2022/06/14 08:42:54;;;;;;;5.22;2.10;;;;;;;22.00;46.80;102394.03;5038682;28;20128;-68
2022/06/14 08:45:33;;;;;;;4.93;2.10;;;;;;;22.85;44.47;102388.97;5032532;28;20569;-68
2022/06/14 08:48:33;;;;;;;6.75;2.60;;;;;;;24.63;38.76;102393.56;5035461;28;20037;-68
2022/06/14 08:51:11;;;;;;;5.60;2.20;;;;;;;25.46;36.12;102396.78;5031931;28;20025;-68
2022/06/14 08:53:57;;;;;;;6.38;2.20;;;;;;;25.73;34.60;102392.72;5027669;28;20033;-68
2022/06/14 08:56:41;;;;;;;5.00;2.50;;;;;;;25.70;33.75;102390.28;5038989;28;20041;-68
2022/06/14 08:59:37;;;;;;;7.50;2.35;;;;;;;25.61;34.26;102386.50;5032138;28;20053;-68
2022/06/14 09:02:28;;;;;;;4.20;2.20;;;;;;;25.21;35.69;102392.56;5030105;28;20495;-68
2022/06/14 09:05:01;;;;;;;5.00;2.30;;;;;;;25.64;36.20;102380.81;5035276;28;20025;-67
2022/06/14 09:07:36;;;;;;;8.43;2.30;;;;;;;26.00;32.24;102389.53;5039726;28;20033;-68
2022/06/14 09:10:43;;;;;;;5.95;2.10;;;;;;;26.18;32.84;102389.81;5029962;28;20087;-69
2022/06/14 09:13:18;;;;;;;6.30;2.30;;;;;;;25.22;32.75;102389.69;5011987;28;20393;-68
2022/06/14 09:16:17;;;;;;;6.20;2.53;;;;;;;25.34;33.17;102379.69;5036464;28;20028;-67
2022/06/14 09:18:55;;;;;;;4.75;2.25;;;;;;;25.30;32.78;102376.34;5021308;28;20100;-67
2022/06/14 09:21:42;;;;;;;4.88;2.25;;;;;;;24.94;32.11;102375.72;5032808;28;20160;-69
2022/06/14 09:24:40;;;;;;;7.68;2.90;;;;;;;25.65;33.35;102374.41;5029386;28;20033;-68
2022/06/14 09:27:08;;;;;;;4.80;2.67;;;;;;;26.40;31.03;102368.91;5043979;28;20496;-69
2022/06/14 09:29:54;;;;;;;7.10;2.60;;;;;;;26.32;39.45;102373.16;5029300;28;20041;-67
2022/06/14 09:33:13;;;;;;;5.68;2.67;;;;;;;27.42;30.60;102367.91;5046480;28;20068;-67
2022/06/14 09:35:54;;;;;;;6.57;2.63;;;;;;;26.33;34.77;102368.56;5030848;28;20026;-69
2022/06/14 09:38:55;;;;;;;5.95;2.33;;;;;;;25.07;34.74;102377.44;5029483;28;20025;-69
2022/06/14 09:41:43;;;;;;;7.50;2.75;;;;;;;24.05;37.68;102372.84;5027072;28;20049;-69
2022/06/14 09:44:20;;;;;;;7.82;2.97;;;;;;;23.20;39.89;102369.31;5029329;28;20045;-69
2022/06/14 09:47:08;;;;;;;5.65;2.47;;;;;;;22.19;40.84;102367.50;5029783;28;20106;-69
2022/06/14 09:49:55;;;;;;;8.82;2.90;;;;;;;22.24;41.03;102369.88;5025218;28;20038;-68
2022/06/14 09:52:32;;;;;;;11.30;3.00;;;;;;;22.39;41.00;102376.03;5035480;28;20395;-68
2022/06/14 09:55:15;;;;;;;8.73;2.85;;;;;;;22.30;42.20;102365.88;5025549;28;20048;-68
2022/06/14 09:58:06;;;;;;;7.15;2.42;;;;;;;22.15;43.93;102365.13;5033644;28;20029;-67
2022/06/14 10:00:53;;;;;;;6.47;3.03;;;;;;;22.02;43.71;102360.59;5041968;28;20016;-69
2022/06/14 10:03:41;;;;;;;7.00;2.70;;;;;;;21.89;44.18;102360.59;5036819;28;20034;-67
2022/06/14 10:06:42;;;;;;;7.18;3.03;;;;;;;21.47;40.96;102356.22;5015256;28;20483;-68
2022/06/14 10:09:22;;;;;;;4.32;2.60;;;;;;;21.13;42.22;102362.03;5020145;28;20054;-67
2022/06/14 10:12:12;;;;;;;5.50;2.55;;;;;;;20.93;43.58;102355.25;5031134;28;20366;-67
2022/06/14 10:14:37;;;;;;;5.78;2.75;;;;;;;21.08;41.89;102356.94;5025397;28;20099;-67
2022/06/14 10:17:03;;;;;;;5.95;2.80;;;;;;;21.15;42.79;102351.16;5028871;28;20433;-68
2022/06/14 10:19:47;;;;;;;6.13;2.63;;;;;;;21.14;37.91;102347.63;5021444;28;20041;-69
2022/06/14 10:22:40;;;;;;;3.72;2.53;;;;;;;21.05;39.11;102349.09;5029473;28;20045;-67
2022/06/14 10:25:15;;;;;;;4.90;2.60;;;;;;;21.09;40.07;102345.22;5036036;28;20036;-67
2022/06/14 10:28:11;;;;;;;6.55;2.55;;;;;;;20.75;39.18;102346.53;5030736;28;20103;-69
2022/06/14 10:30:44;;;;;;;5.90;2.85;;;;;;;20.78;39.60;102339.13;5030248;28;20401;-69
2022/06/14 10:33:26;;;;;;;5.15;2.58;;;;;;;21.07;41.02;102340.91;5029051;28;20033;-69
2022/06/14 10:36:09;;;;;;;6.43;2.50;;;;;;;21.14;39.26;102338.66;5031186;28;20431;-68
2022/06/14 10:39:02;;;;;;;6.07;2.65;;;;;;;20.93;40.49;102339.97;5031290;28;20025;-69
2022/06/14 10:41:40;;;;;;;5.22;2.70;;;;;;;20.92;47.91;102331.97;5038436;28;20044;-68
2022/06/14 10:44:25;;;;;;;4.55;2.55;;;;;;;21.56;39.70;102334.06;5037232;28;20132;-68
2022/06/14 10:47:15;;;;;;;5.32;2.90;;;;;;;23.25;35.60;102328.44;5040924;28;20143;-68
2022/06/14 10:50:17;;;;;;;6.90;2.70;;;;;;;24.90;34.30;102317.34;5020602;28;20044;-69
2022/06/14 10:53:05;;;;;;;4.45;2.90;;;;;;;25.58;31.82;102327.94;5026351;28;20116;-69
2022/06/14 10:55:59;;;;;;;3.47;2.28;;;;;;;25.33;32.56;102321.88;5039482;28;20025;-68
2022/06/14 10:58:55;;;;;;;6.05;2.75;;;;;;;24.12;34.96;102321.78;5030485;28;20029;-68
2022/06/14 11:01:24;;;;;;;5.97;2.72;;;;;;;24.10;36.84;102321.06;5031363;28;20021;-68
2022/06/14 11:04:12;;;;;;;7.65;2.95;;;;;;;25.06;33.78;102321.50;5030384;28;20033;-68
2022/06/14 11:06:49;;;;;;;6.00;2.60;;;;;;;25.55;32.05;102314.66;5031205;28;20107;-68
2022/06/14 11:09:18;;;;;;;6.25;2.92;;;;;;;26.18;33.65;102305.63;5030895;28;20283;-67
2022/06/14 11:12:05;;;;;;;4.32;2.50;;;;;;;25.89;31.08;102305.44;5030667;28;20025;-68
2022/06/14 11:14:43;;;;;;;4.75;2.50;;;;;;;25.35;32.89;102306.38;5021778;28;20037;-67
2022/06/14 11:17:38;;;;;;;5.90;2.80;;;;;;;24.67;33.56;102301.13;5030781;28;20026;-68
2022/06/14 11:20:21;;;;;;;5.95;2.70;;;;;;;25.07;36.34;102306.97;5029521;28;20057;-68
2022/06/14 11:23:09;;;;;;;6.00;2.80;;;;;;;25.52;33.64;102301.34;5030729;28;20029;-69
2022/06/14 11:25:42;;;;;;;4.20;2.80;;;;;;;26.21;30.89;102305.34;5023428;28;20362;-68
2022/06/14 11:28:26;;;;;;;4.65;2.55;;;;;;;26.22;31.52;102293.50;5033975;28;20013;-68
2022/06/14 11:31:30;;;;;;;6.00;2.78;;;;;;;26.06;30.26;102290.41;5030748;28;20025;-68
2022/06/14 11:34:31;;;;;;;5.47;2.60;;;;;;;25.80;32.76;102290.84;5028463;28;20119;-68
2022/06/14 11:37:35;;;;;;;6.35;2.70;;;;;;;25.29;32.55;102298.72;5012249;28;20030;-68
2022/06/14 11:40:23;;;;;;;5.18;2.78;;;;;;;24.42;32.92;102298.69;5017861;28;20048;-68
2022/06/14 11:43:00;;;;;;;6.32;3.10;;;;;;;24.16;34.94;102296.25;5032531;28;20105;-68
2022/06/14 11:45:31;;;;;;;5.75;2.63;;;;;;;24.02;34.47;102289.22;5032968;28;20044;-68
2022/06/14 11:48:05;;;;;;;;;;;;;;;24.07;36.79;102284.28;5032754;28;20029;-67
2022/06/14 11:50:38;;;;;;;7.57;3.20;;;;;;;23.86;36.62;102286.81;5034441;28;19920;-68
2022/06/14 11:53:31;;;;;;;7.03;3.00;;;;;;;23.67;37.75;102293.69;5034185;28;20484;-68
2022/06/14 11:56:31;;;;;;;7.45;2.92;;;;;;;23.15;37.00;102287.72;5030878;28;20067;-68
2022/06/14 11:59:14;;;;;;;7.73;3.27;;;;;;;23.12;38.61;102282.53;4993582;28;20042;-68
2022/06/14 12:02:09;;;;;;;5.90;2.90;;;;;;;23.46;36.82;102281.81;5046404;28;20033;-69
2022/06/14 12:04:47;;;;;;;5.82;2.70;;;;;;;23.39;38.35;102281.44;5047756;28;20025;-68
2022/06/14 12:07:32;;;;;;;5.78;2.65;;;;;;;23.36;38.43;102282.53;5046139;28;20028;-68
2022/06/14 12:10:39;;;;;;;7.32;3.00;;;;;;;23.37;36.86;102280.69;5035909;28;20029;-68
2022/06/14 12:13:22;;;;;;;6.18;2.95;;;;;;;23.19;37.45;102274.84;5018608;28;20045;-68
2022/06/14 12:16:02;;;;;;;7.05;3.45;;;;;;;22.94;37.23;102282.06;5029827;28;20032;-68
2022/06/14 12:18:33;;;;;;;6.15;3.38;;;;;;;22.64;37.95;102269.88;5033573;28;20052;-68
2022/06/14 12:21:24;;;;;;;6.28;3.00;;;;;;;22.79;36.98;102275.97;5040882;28;20029;-68
2022/06/14 12:23:54;;;;;;;6.88;3.40;;;;;;;22.69;38.61;102275.78;5031160;28;20025;-69
2022/06/14 12:26:35;;;;;;;6.57;3.33;;;;;;;22.66;37.56;102267.94;5033287;28;20025;-68
2022/06/14 12:29:11;;;;;;;5.10;2.70;;;;;;;22.89;39.22;102265.31;5032389;28;20043;-69